Time;durP1;ratioP1;P1;durP2;ratioP2;P2;SDS_P1;SDS_P2;PMS_P1;PMS_P2;Temp;Humidity;BMP_temperature;BMP_pressure;BME280_temperature;BME280_humidity;BME280_pressure;Samples;Min_cycle;Max_cycle;Signal;HPM_P1;HPM_P2
2023/01/15 00:04:40;;;;;;;1.33;0.80;;;;;;;9.19;69.64;98302.13;10272288;28;20559;-62
2023/01/15 00:09:42;;;;;;;0.82;0.65;;;;;;;9.18;69.39;98316.09;10270899;28;20043;-62
2023/01/15 00:14:44;;;;;;;0.85;0.65;;;;;;;9.09;69.64;98322.06;10273705;28;20442;-62
2023/01/15 00:19:46;;;;;;;3.55;1.00;;;;;;;9.16;69.70;98323.22;10271736;28;20050;-62
2023/01/15 00:30:10;;;;;;;1.83;1.10;;;;;;;9.28;69.42;98321.44;10271448;28;20054;-62
2023/01/15 00:35:15;;;;;;;2.97;1.10;;;;;;;9.36;69.37;98325.06;10280973;28;20384;-62
2023/01/15 00:40:18;;;;;;;1.58;0.95;;;;;;;9.49;69.08;98315.31;10271227;28;20315;-62
2023/01/15 00:45:20;;;;;;;1.45;1.10;;;;;;;9.56;68.99;98337.34;10271764;28;20065;-62
2023/01/15 00:50:21;;;;;;;1.65;1.00;;;;;;;9.63;68.81;98340.28;10268339;28;20494;-62
2023/01/15 00:55:24;;;;;;;1.77;0.90;;;;;;;9.55;68.70;98360.94;10274456;28;20068;-62
2023/01/15 01:00:26;;;;;;;1.85;0.77;;;;;;;8.88;69.02;98360.22;10262466;28;20051;-62
2023/01/15 01:05:27;;;;;;;1.65;0.80;;;;;;;8.56;68.35;98367.09;10270249;28;20050;-62
2023/01/15 01:10:29;;;;;;;2.53;0.93;;;;;;;8.44;68.42;98379.28;10265952;28;20050;-62
2023/01/15 01:15:36;;;;;;;1.90;0.90;;;;;;;8.29;67.88;98400.44;10261283;28;20047;-62
2023/01/15 01:20:38;;;;;;;1.05;0.80;;;;;;;8.02;68.31;98401.50;10270338;28;20042;-62
2023/01/15 01:25:39;;;;;;;1.77;0.80;;;;;;;8.08;68.09;98409.81;10264021;28;20527;-62
2023/01/15 01:30:41;;;;;;;2.90;1.20;;;;;;;8.07;68.41;98428.97;10266688;28;20050;-62
2023/01/15 01:35:49;;;;;;;1.20;0.90;;;;;;;8.15;68.22;98437.91;10267219;28;20141;-62
2023/01/15 01:40:51;;;;;;;2.67;0.90;;;;;;;8.12;68.10;98450.34;10274757;28;20039;-62
2023/01/15 01:45:52;;;;;;;3.35;0.90;;;;;;;8.00;68.08;98452.00;10275341;28;20054;-62
2023/01/15 01:50:56;;;;;;;4.03;1.40;;;;;;;7.78;67.95;98468.34;10268809;28;20050;-62
2023/01/15 01:55:59;;;;;;;0.98;0.80;;;;;;;7.39;67.97;98483.31;10269719;28;20047;-62
2023/01/15 02:01:01;;;;;;;2.10;0.77;;;;;;;7.13;67.86;98485.97;10272034;28;20526;-62
2023/01/15 02:06:07;;;;;;;1.33;0.60;;;;;;;6.81;66.98;98496.88;10275334;28;20093;-62
2023/01/15 02:11:17;;;;;;;0.80;0.55;;;;;;;6.77;67.06;98492.84;10270723;28;20046;-62
2023/01/15 02:16:28;;;;;;;0.60;0.60;;;;;;;6.59;67.36;98497.50;10290779;28;20093;-61
2023/01/15 02:21:48;;;;;;;0.70;0.50;;;;;;;6.36;67.48;98490.38;10270238;28;20524;-61
2023/01/15 02:27:09;;;;;;;4.22;0.70;;;;;;;6.30;65.78;98495.97;10272032;28;20442;-62
2023/01/15 02:32:30;;;;;;;0.80;0.60;;;;;;;6.04;66.96;98474.25;10284440;28;20051;-62
2023/01/15 02:37:37;;;;;;;1.10;0.55;;;;;;;5.90;66.54;98489.88;10277630;28;20050;-62
2023/01/15 02:42:42;;;;;;;1.55;0.80;;;;;;;5.83;66.46;98487.78;10266243;28;20046;-62
2023/01/15 02:47:45;;;;;;;1.40;0.68;;;;;;;5.74;65.69;98490.97;10269419;28;20418;-62
2023/01/15 02:52:52;;;;;;;3.35;0.82;;;;;;;5.75;66.08;98503.81;10265793;28;20323;-62
2023/01/15 02:57:57;;;;;;;3.78;0.60;;;;;;;5.69;66.07;98500.78;10261112;28;20105;-62
2023/01/15 03:03:11;;;;;;;2.60;0.90;;;;;;;5.68;66.32;98494.75;10282485;28;20043;-62
2023/01/15 03:08:13;;;;;;;1.42;0.65;;;;;;;5.83;66.33;98501.56;10270001;28;20430;-62
2023/01/15 03:13:47;;;;;;;1.70;0.73;;;;;;;5.82;66.38;98507.69;10279051;28;20050;-62
2023/01/15 03:19:28;;;;;;;3.45;0.80;;;;;;;5.85;65.92;98511.84;10272899;28;20058;-62
2023/01/15 03:24:40;;;;;;;2.97;0.80;;;;;;;5.79;66.44;98513.09;10273987;28;20053;-62
2023/01/15 03:29:46;;;;;;;2.97;0.65;;;;;;;5.58;66.50;98517.00;10274553;28;20141;-62
2023/01/15 03:34:53;;;;;;;2.45;0.60;;;;;;;5.45;66.64;98529.88;10275431;28;20082;-63
2023/01/15 03:39:57;;;;;;;2.03;0.75;;;;;;;5.49;66.74;98530.53;10280102;28;20406;-62
2023/01/15 03:45:33;;;;;;;1.63;0.60;;;;;;;5.24;66.33;98520.84;10280769;28;20070;-61
2023/01/15 03:50:44;;;;;;;0.80;0.60;;;;;;;5.24;66.95;98532.94;10266133;28;20510;-62
2023/01/15 03:56:16;;;;;;;0.90;0.47;;;;;;;5.33;66.73;98540.19;10267527;28;20306;-62
2023/01/15 04:01:26;;;;;;;2.00;0.75;;;;;;;5.27;66.92;98540.53;10266461;28;20046;-62
2023/01/15 04:06:30;;;;;;;2.43;0.60;;;;;;;5.33;66.71;98550.56;10265106;28;20590;-62
2023/01/15 04:11:32;;;;;;;1.38;0.50;;;;;;;5.44;66.79;98553.31;10263779;28;20250;-62
2023/01/15 04:16:34;;;;;;;1.60;0.65;;;;;;;5.33;66.58;98551.38;10268303;28;20522;-62
2023/01/15 04:21:36;;;;;;;2.20;0.68;;;;;;;5.29;66.71;98560.25;10266389;28;20521;-62
2023/01/15 04:26:37;;;;;;;2.85;0.93;;;;;;;5.27;67.03;98553.47;10259846;28;20050;-62
2023/01/15 04:31:39;;;;;;;1.33;0.60;;;;;;;5.20;66.81;98552.19;10266326;28;20055;-62
2023/01/15 04:36:42;;;;;;;2.85;1.00;;;;;;;5.05;66.54;98563.47;10250542;28;20510;-62
2023/01/15 04:47:05;;;;;;;1.92;0.45;;;;;;;5.00;66.67;98562.91;10264939;28;20058;-62
2023/01/15 04:52:06;;;;;;;2.40;0.85;;;;;;;4.97;66.90;98576.03;10283585;28;20050;-62
2023/01/15 04:57:10;;;;;;;2.42;0.57;;;;;;;4.93;66.82;98564.19;10272122;28;20046;-62
2023/01/15 05:02:12;;;;;;;1.85;0.70;;;;;;;4.96;66.95;98580.41;10273889;28;20053;-62
2023/01/15 05:07:16;;;;;;;2.45;0.80;;;;;;;4.92;66.45;98578.91;10268229;28;20077;-62
2023/01/15 05:12:17;;;;;;;3.70;1.13;;;;;;;4.86;66.82;98568.06;10259940;28;20046;-62
2023/01/15 05:17:19;;;;;;;2.22;0.80;;;;;;;4.82;66.83;98592.50;10270648;28;20058;-62
2023/01/15 05:22:20;;;;;;;2.67;0.82;;;;;;;4.75;67.15;98591.16;10268612;28;20043;-62
2023/01/15 05:27:22;;;;;;;4.32;1.02;;;;;;;4.72;67.34;98596.53;10266984;28;20046;-61
2023/01/15 05:32:24;;;;;;;2.00;0.52;;;;;;;4.75;67.19;98585.97;10263435;28;20050;-62
2023/01/15 05:37:25;;;;;;;2.97;0.77;;;;;;;4.69;67.26;98585.44;10267435;28;20050;-62
2023/01/15 05:42:27;;;;;;;2.78;0.68;;;;;;;4.76;67.53;98578.09;10271566;28;20405;-62
2023/01/15 05:47:29;;;;;;;1.60;0.80;;;;;;;4.85;67.26;98582.78;10261618;28;20062;-62
2023/01/15 05:52:30;;;;;;;1.48;0.70;;;;;;;4.97;67.34;98589.00;10264251;28;20525;-62
2023/01/15 05:57:32;;;;;;;3.33;0.85;;;;;;;4.99;67.33;98590.56;10266135;28;20053;-62
2023/01/15 06:02:33;;;;;;;1.80;0.77;;;;;;;5.05;67.25;98603.16;10264164;28;20050;-62
2023/01/15 06:07:35;;;;;;;2.45;0.90;;;;;;;4.99;67.40;98603.53;10266804;28;20445;-62
2023/01/15 06:12:37;;;;;;;2.60;0.80;;;;;;;4.96;67.54;98597.69;10264812;28;20047;-62
2023/01/15 06:17:38;;;;;;;4.45;0.90;;;;;;;5.04;67.50;98592.91;10261682;28;20407;-62
2023/01/15 06:22:40;;;;;;;4.15;0.80;;;;;;;5.04;67.54;98600.69;10278976;28;20051;-63
2023/01/15 06:27:43;;;;;;;3.58;0.95;;;;;;;4.98;67.52;98606.22;10248325;28;20514;-62
2023/01/15 06:32:45;;;;;;;2.53;0.68;;;;;;;4.91;67.44;98602.31;10267132;28;20047;-62
2023/01/15 06:37:48;;;;;;;1.55;0.73;;;;;;;4.78;67.77;98622.06;10271492;28;20047;-63
2023/01/15 06:48:10;;;;;;;1.60;0.90;;;;;;;4.59;67.81;98615.34;10263879;28;20557;-62
2023/01/15 06:53:12;;;;;;;2.00;0.85;;;;;;;4.59;68.04;98612.75;10266644;28;20426;-63
2023/01/15 06:58:14;;;;;;;1.55;0.80;;;;;;;4.62;67.88;98597.03;10260365;28;20046;-62
2023/01/15 07:03:15;;;;;;;3.08;1.08;;;;;;;4.69;67.94;98603.56;10267326;28;20058;-62
2023/01/15 07:08:17;;;;;;;1.27;0.88;;;;;;;4.67;67.91;98622.69;10263197;28;20053;-63
2023/01/15 07:13:19;;;;;;;1.92;0.70;;;;;;;4.66;68.15;98628.75;10267187;28;20086;-63
2023/01/15 07:18:20;;;;;;;0.63;0.52;;;;;;;4.60;67.89;98626.53;10266424;28;20050;-63
2023/01/15 07:23:24;;;;;;;1.35;0.60;;;;;;;4.53;68.11;98628.66;10266320;28;20058;-63
2023/01/15 07:28:25;;;;;;;0.75;0.60;;;;;;;4.52;68.35;98633.88;10277088;28;20411;-62
2023/01/15 07:33:27;;;;;;;0.85;0.60;;;;;;;4.59;68.37;98636.06;10268459;28;20054;-62
2023/01/15 07:38:28;;;;;;;1.52;0.98;;;;;;;4.59;68.31;98643.00;10266756;28;20055;-62
2023/01/15 07:54:11;;;;;;;1.25;0.65;;;;;;;4.63;68.42;98660.88;10281855;28;20422;-63
2023/01/15 07:59:12;;;;;;;1.83;0.93;;;;;;;4.58;68.50;98649.06;10269304;28;20053;-62
2023/01/15 08:04:14;;;;;;;0.50;0.50;;;;;;;4.52;68.49;98663.19;10266954;28;20053;-63
2023/01/15 08:09:16;;;;;;;0.80;0.70;;;;;;;4.58;68.44;98660.28;10277646;28;20050;-63
2023/01/15 08:19:38;;;;;;;1.00;0.55;;;;;;;4.62;68.73;98669.53;10276496;28;20485;-63
2023/01/15 08:24:39;;;;;;;0.73;0.57;;;;;;;4.68;68.33;98682.16;10271652;28;20065;-63
2023/01/15 08:29:41;;;;;;;1.13;0.57;;;;;;;4.69;68.48;98691.59;10276845;28;20066;-62
2023/01/15 08:34:43;;;;;;;0.80;0.60;;;;;;;4.71;68.37;98701.88;10283341;28;20046;-63
2023/01/15 08:39:44;;;;;;;2.08;0.80;;;;;;;4.78;68.38;98698.00;10275711;28;20045;-62
2023/01/15 08:44:47;;;;;;;1.17;0.80;;;;;;;4.60;68.86;98709.38;10274920;28;20061;-62
2023/01/15 08:49:49;;;;;;;1.73;0.95;;;;;;;4.49;69.05;98716.91;10274541;28;20050;-63
2023/01/15 08:54:50;;;;;;;1.48;0.70;;;;;;;4.55;68.95;98709.66;10279706;28;20052;-63
2023/01/15 08:59:52;;;;;;;2.35;0.90;;;;;;;4.59;68.61;98707.72;10275743;28;20396;-63
2023/01/15 09:04:53;;;;;;;2.22;0.77;;;;;;;4.54;68.43;98704.53;10283082;28;20050;-62
2023/01/15 09:09:55;;;;;;;1.88;0.75;;;;;;;4.55;68.34;98699.28;10283237;28;20190;-62
2023/01/15 09:14:57;;;;;;;1.33;0.65;;;;;;;4.44;67.86;98690.41;10276385;28;20556;-63
2023/01/15 09:20:04;;;;;;;1.70;0.80;;;;;;;4.63;67.48;98681.59;10277532;28;20057;-63
2023/01/15 09:25:06;;;;;;;2.20;0.82;;;;;;;4.61;67.28;98688.59;10266253;28;20427;-63
2023/01/15 09:30:13;;;;;;;1.42;0.70;;;;;;;4.72;66.60;98702.72;10282729;28;20054;-62
2023/01/15 09:35:15;;;;;;;3.53;1.05;;;;;;;4.88;66.33;98701.78;10277750;28;20437;-63
2023/01/15 09:40:37;;;;;;;2.50;0.68;;;;;;;4.82;65.65;98722.00;10273593;28;20785;-62
2023/01/15 09:45:50;;;;;;;11.95;5.40;;;;;;;4.92;65.64;98728.34;10272424;28;20058;-62
2023/01/15 09:51:27;;;;;;;3.92;1.85;;;;;;;4.86;64.79;98741.63;10270809;28;20043;-62
2023/01/15 09:56:32;;;;;;;6.13;3.22;;;;;;;5.02;65.17;98730.31;10272001;28;20047;-62
2023/01/15 10:01:34;;;;;;;1.48;0.82;;;;;;;4.92;64.53;98739.53;10281845;28;20046;-62
2023/01/15 10:06:44;;;;;;;2.83;1.05;;;;;;;4.88;63.57;98742.38;10270699;28;20055;-63
2023/01/15 10:17:35;;;;;;;4.80;1.20;;;;;;;4.90;63.86;98748.31;10273979;28;20043;-64
2023/01/15 10:23:05;;;;;;;3.40;1.00;;;;;;;4.91;63.49;98742.19;10272006;28;20069;-63
2023/01/15 10:29:00;;;;;;;3.17;0.95;;;;;;;4.95;63.31;98741.09;10271979;28;20089;-63
2023/01/15 10:34:24;;;;;;;4.57;1.17;;;;;;;4.93;63.01;98751.56;10265583;28;20051;-63
2023/01/15 10:39:48;;;;;;;2.78;0.90;;;;;;;4.92;63.39;98755.09;10266283;28;20155;-64
2023/01/15 10:45:01;;;;;;;4.03;1.00;;;;;;;4.84;63.42;98761.59;10270105;28;20145;-64
2023/01/15 10:50:15;;;;;;;3.55;0.98;;;;;;;4.99;63.26;98751.22;10269216;28;20144;-64
2023/01/15 10:55:42;;;;;;;3.50;1.10;;;;;;;5.22;62.91;98752.50;10266280;28;20403;-63
2023/01/15 11:00:51;;;;;;;5.00;1.30;;;;;;;5.45;63.03;98742.50;10261538;28;20089;-64
2023/01/15 11:05:53;;;;;;;3.17;1.13;;;;;;;5.51;62.50;98759.47;10266079;28;20047;-64
2023/01/15 11:10:57;;;;;;;5.55;1.25;;;;;;;5.53;61.97;98775.78;10252461;28;20283;-63
2023/01/15 11:21:22;;;;;;;5.38;1.13;;;;;;;5.47;61.43;98773.53;10263994;28;20043;-64
2023/01/15 11:26:31;;;;;;;6.63;1.75;;;;;;;5.43;60.93;98769.44;10281735;28;20255;-64
2023/01/15 11:31:39;;;;;;;3.92;1.30;;;;;;;5.36;60.65;98775.91;10268972;28;20727;-64
2023/01/15 11:36:41;;;;;;;6.43;1.25;;;;;;;5.45;61.08;98765.81;10280236;28;20047;-64
2023/01/15 11:52:53;;;;;;;6.05;1.35;;;;;;;5.40;60.41;98744.53;10289273;28;20053;-64
2023/01/15 11:57:57;;;;;;;5.60;1.42;;;;;;;5.43;60.09;98735.75;10260375;28;20418;-64
2023/01/15 12:03:04;;;;;;;12.27;6.75;;;;;;;5.62;59.95;98733.72;10279278;28;20146;-64
2023/01/15 12:08:42;;;;;;;4.45;2.33;;;;;;;5.55;59.31;98748.00;10257340;28;20396;-65
2023/01/15 12:13:53;;;;;;;5.68;1.60;;;;;;;5.43;59.08;98746.94;10268903;28;20046;-64
2023/01/15 12:19:04;;;;;;;8.13;3.80;;;;;;;5.54;58.20;98743.72;10262862;28;20530;-64
2023/01/15 12:24:30;;;;;;;6.25;2.17;;;;;;;5.61;57.96;98739.84;10273949;28;20510;-64
2023/01/15 12:29:43;;;;;;;9.52;2.92;;;;;;;5.70;56.95;98743.66;10262098;28;20376;-65
2023/01/15 12:35:06;;;;;;;5.85;2.22;;;;;;;5.93;57.27;98731.00;10267377;28;20047;-64
2023/01/15 12:40:13;;;;;;;7.85;2.85;;;;;;;5.99;56.93;98717.66;10265367;28;20570;-64
2023/01/15 12:45:27;;;;;;;4.50;2.05;;;;;;;5.42;56.13;98719.34;10271006;28;20050;-64
2023/01/15 12:50:49;;;;;;;5.93;2.20;;;;;;;5.59;56.39;98720.97;10264607;28;20054;-64
2023/01/15 12:56:16;;;;;;;4.55;1.77;;;;;;;5.49;56.23;98730.19;10268080;28;20042;-64
2023/01/15 13:01:49;;;;;;;7.65;1.85;;;;;;;5.51;56.06;98697.25;10266699;28;20046;-64
2023/01/15 13:07:15;;;;;;;6.93;2.60;;;;;;;5.67;55.57;98708.38;10264932;28;20070;-64
2023/01/15 13:12:17;;;;;;;4.60;1.63;;;;;;;5.62;55.65;98709.56;10268328;28;20050;-64
2023/01/15 13:17:30;;;;;;;4.97;1.35;;;;;;;5.57;54.90;98717.63;10262092;28;20057;-64
2023/01/15 13:22:41;;;;;;;4.70;1.73;;;;;;;5.53;54.27;98711.75;10275068;28;20069;-64
2023/01/15 13:27:58;;;;;;;4.10;1.50;;;;;;;5.53;53.64;98726.50;10269129;28;20225;-64
2023/01/15 13:33:33;;;;;;;8.07;1.60;;;;;;;5.39;53.89;98735.06;10271803;28;20054;-64
2023/01/15 13:38:39;;;;;;;8.25;1.70;;;;;;;5.50;53.62;98737.88;10276232;28;20046;-64
2023/01/15 13:43:42;;;;;;;10.85;1.45;;;;;;;5.57;53.86;98757.34;10274812;28;20053;-64
2023/01/15 13:48:50;;;;;;;6.65;1.45;;;;;;;5.67;53.90;98742.09;10278242;28;20054;-64
2023/01/15 13:53:54;;;;;;;5.07;1.20;;;;;;;5.59;54.19;98748.66;10271842;28;20057;-64
2023/01/15 13:59:01;;;;;;;6.38;1.60;;;;;;;5.68;54.18;98743.75;10267784;28;20047;-64
2023/01/15 14:04:14;;;;;;;7.50;1.50;;;;;;;5.94;53.52;98758.59;10288924;28;20051;-65
2023/01/15 14:09:21;;;;;;;6.75;1.50;;;;;;;5.91;52.80;98748.44;10291522;28;20059;-64
2023/01/15 14:15:02;;;;;;;5.63;1.50;;;;;;;5.94;51.63;98747.41;10292396;28;20058;-64
2023/01/15 14:20:25;;;;;;;6.45;1.63;;;;;;;5.72;51.42;98745.25;10282104;28;20055;-64
2023/01/15 14:25:45;;;;;;;6.97;1.60;;;;;;;5.75;52.30;98745.06;10281712;28;20491;-64
2023/01/15 14:31:06;;;;;;;7.53;2.20;;;;;;;5.88;51.95;98738.22;10266548;28;20054;-64
2023/01/15 14:36:14;;;;;;;6.03;1.60;;;;;;;5.81;52.62;98741.28;10272204;28;20050;-64
2023/01/15 14:41:30;;;;;;;7.28;1.77;;;;;;;5.68;51.98;98769.69;10293345;28;20054;-64
2023/01/15 14:46:34;;;;;;;4.68;1.17;;;;;;;6.10;52.28;98761.94;10282545;28;20058;-64
2023/01/15 14:51:48;;;;;;;7.95;1.70;;;;;;;6.11;51.83;98768.81;10265449;28;20169;-64
2023/01/15 14:56:54;;;;;;;5.60;1.50;;;;;;;6.28;52.40;98794.66;10288453;28;20054;-64
2023/01/15 15:01:58;;;;;;;4.80;1.65;;;;;;;6.31;52.08;98804.00;10300035;28;20055;-64
2023/01/15 15:07:14;;;;;;;7.05;1.38;;;;;;;6.28;52.24;98814.59;10288513;28;20054;-65
2023/01/15 15:12:25;;;;;;;6.60;1.15;;;;;;;6.31;52.11;98824.78;10275150;28;20050;-64
2023/01/15 15:18:11;;;;;;;5.53;1.40;;;;;;;6.28;52.43;98837.94;10279688;28;20047;-64
2023/01/15 15:23:46;;;;;;;5.20;1.33;;;;;;;6.13;52.84;98837.06;10294904;28;20573;-65
2023/01/15 15:28:59;;;;;;;4.72;1.55;;;;;;;6.06;52.89;98833.13;10280464;28;20062;-65
2023/01/15 15:34:01;;;;;;;8.98;1.60;;;;;;;6.07;53.37;98837.41;10291653;28;20051;-65
2023/01/15 15:39:15;;;;;;;6.43;1.92;;;;;;;6.09;53.50;98839.91;10303551;28;20510;-65
2023/01/15 15:49:51;;;;;;;5.85;1.42;;;;;;;6.08;53.80;98833.88;10265494;28;20050;-65
2023/01/15 15:55:02;;;;;;;8.80;1.70;;;;;;;6.01;54.09;98837.78;10264025;28;20034;-65
2023/01/15 16:00:04;;;;;;;6.10;2.00;;;;;;;5.95;54.28;98832.94;10276508;28;20429;-64
2023/01/15 16:05:18;;;;;;;6.18;1.67;;;;;;;5.98;54.06;98832.75;10304071;28;20558;-64
2023/01/15 16:10:31;;;;;;;6.55;1.50;;;;;;;5.94;54.02;98830.44;10304065;28;20060;-65
2023/01/15 16:15:38;;;;;;;4.90;1.23;;;;;;;6.00;54.48;98822.31;10303758;28;20046;-65
2023/01/15 16:20:40;;;;;;;4.22;1.63;;;;;;;5.98;54.96;98839.72;10263223;28;20043;-65
2023/01/15 16:25:41;;;;;;;4.55;1.30;;;;;;;5.79;55.72;98839.94;10264893;28;20047;-65
2023/01/15 16:30:43;;;;;;;7.72;1.40;;;;;;;5.75;55.70;98843.66;10301716;28;20054;-65
2023/01/15 16:35:45;;;;;;;5.63;1.92;;;;;;;5.70;55.91;98848.25;10246259;28;20097;-64
2023/01/15 16:40:46;;;;;;;4.20;1.50;;;;;;;5.65;56.19;98833.88;10263725;28;20099;-64
2023/01/15 16:46:14;;;;;;;5.38;1.50;;;;;;;5.59;56.91;98839.41;10288043;28;20061;-65
2023/01/15 16:51:31;;;;;;;4.32;1.55;;;;;;;5.52;57.71;98841.50;10296741;28;20054;-64
2023/01/15 16:56:39;;;;;;;3.75;1.35;;;;;;;5.49;58.03;98849.47;10270780;28;20082;-64
2023/01/15 17:01:43;;;;;;;6.05;1.45;;;;;;;5.46;58.03;98832.34;10291191;28;20050;-64
2023/01/15 17:06:54;;;;;;;4.35;1.42;;;;;;;5.41;58.26;98825.75;10310687;28;20105;-65
2023/01/15 17:11:57;;;;;;;6.35;1.48;;;;;;;5.43;58.22;98826.50;10281123;28;20460;-65
2023/01/15 17:17:20;;;;;;;7.07;1.60;;;;;;;5.36;58.41;98826.00;10270218;28;20175;-64
2023/01/15 17:22:28;;;;;;;7.57;1.60;;;;;;;5.31;58.53;98819.41;10290924;28;20058;-65
2023/01/15 17:27:29;;;;;;;7.72;1.90;;;;;;;5.39;58.25;98825.00;10301641;28;20073;-64
2023/01/15 17:32:38;;;;;;;7.13;1.80;;;;;;;5.48;59.03;98830.50;10269783;28;20435;-64
2023/01/15 17:37:40;;;;;;;5.65;1.63;;;;;;;5.35;59.65;98821.72;10267929;28;20503;-64
2023/01/15 17:42:41;;;;;;;6.38;1.42;;;;;;;4.99;61.36;98828.09;10305365;28;20055;-64
2023/01/15 17:47:43;;;;;;;9.70;1.90;;;;;;;4.91;61.66;98830.28;10271818;28;20408;-65
2023/01/15 17:52:45;;;;;;;8.70;2.10;;;;;;;4.97;61.87;98825.59;10289165;28;20065;-65
2023/01/15 18:08:39;;;;;;;6.70;2.30;;;;;;;4.76;63.72;98844.06;10266071;28;20051;-65
2023/01/15 18:13:41;;;;;;;9.50;2.35;;;;;;;4.79;64.04;98839.53;10283556;28;20500;-64
2023/01/15 18:18:43;;;;;;;6.30;1.80;;;;;;;4.86;64.34;98842.66;10284963;28;20051;-65
2023/01/15 18:23:44;;;;;;;12.43;2.50;;;;;;;4.79;64.60;98841.28;10273868;28;20153;-64
2023/01/15 18:28:47;;;;;;;9.70;3.10;;;;;;;4.42;65.01;98842.41;10281173;28;20054;-64
2023/01/15 18:33:50;;;;;;;6.03;2.00;;;;;;;4.31;65.16;98837.78;10279092;28;20038;-65
2023/01/15 18:38:52;;;;;;;7.90;2.22;;;;;;;4.24;65.32;98828.66;10273242;28;20046;-65
2023/01/15 18:49:18;;;;;;;9.53;2.50;;;;;;;4.11;65.46;98821.63;10288035;28;20099;-65
2023/01/15 18:54:20;;;;;;;8.38;3.78;;;;;;;4.18;65.72;98821.22;10286085;28;20084;-65
2023/01/15 18:59:22;;;;;;;10.00;2.00;;;;;;;4.16;65.72;98797.19;10277699;28;20521;-64
2023/01/15 19:04:24;;;;;;;9.52;2.10;;;;;;;4.08;65.72;98791.56;10275848;28;20199;-65
2023/01/15 19:09:26;;;;;;;5.93;1.67;;;;;;;4.04;65.75;98791.78;10272833;28;20050;-64
2023/01/15 19:19:49;;;;;;;6.78;1.98;;;;;;;3.86;66.06;98775.47;10268183;28;20129;-65
2023/01/15 19:24:50;;;;;;;8.25;1.70;;;;;;;3.84;66.19;98777.31;10269835;28;20066;-65
2023/01/15 19:29:52;;;;;;;5.93;1.50;;;;;;;3.95;66.26;98777.56;10273220;28;20133;-65
2023/01/15 19:34:54;;;;;;;6.30;1.50;;;;;;;4.19;65.83;98783.25;10273238;28;20058;-65
2023/01/15 19:39:55;;;;;;;7.40;1.65;;;;;;;4.35;65.40;98778.94;10265799;28;20054;-65
2023/01/15 19:50:21;;;;;;;4.97;1.88;;;;;;;4.39;65.80;98793.38;10263864;28;20050;-65
2023/01/15 19:55:23;;;;;;;6.93;2.10;;;;;;;4.32;65.76;98779.09;10271767;28;20046;-65
2023/01/15 20:00:26;;;;;;;7.90;2.50;;;;;;;4.34;65.90;98772.91;10264000;28;20510;-65
2023/01/15 20:05:30;;;;;;;9.88;2.33;;;;;;;4.20;66.24;98753.84;10273342;28;20055;-65
2023/01/15 20:10:33;;;;;;;4.85;2.10;;;;;;;3.92;66.32;98744.13;10265116;28;20057;-64
2023/01/15 20:15:36;;;;;;;10.73;2.45;;;;;;;4.07;66.46;98753.66;10264621;28;20058;-66
2023/01/15 20:20:38;;;;;;;9.82;3.17;;;;;;;4.24;66.39;98745.00;10276465;28;20054;-65
2023/01/15 20:25:40;;;;;;;6.53;2.47;;;;;;;4.29;65.83;98740.44;10270792;28;20196;-66
2023/01/15 20:30:42;;;;;;;7.10;2.42;;;;;;;4.08;65.96;98726.88;10271526;28;20059;-65
2023/01/15 20:35:45;;;;;;;7.97;2.15;;;;;;;3.99;66.06;98732.53;10271869;28;20047;-66
2023/01/15 20:40:50;;;;;;;8.60;2.28;;;;;;;4.16;65.80;98716.13;10287807;28;20057;-66
2023/01/15 20:45:52;;;;;;;5.40;1.60;;;;;;;4.31;65.23;98710.13;10263464;28;20055;-66
2023/01/15 20:51:00;;;;;;;5.85;1.75;;;;;;;4.50;64.98;98703.03;10269371;28;20046;-66
2023/01/15 20:56:03;;;;;;;8.85;1.75;;;;;;;4.69;64.48;98688.16;10273487;28;20144;-65
2023/01/15 21:01:09;;;;;;;6.28;1.50;;;;;;;4.63;64.20;98684.16;10269597;28;20495;-65
2023/01/15 21:06:11;;;;;;;3.28;1.20;;;;;;;4.44;64.22;98688.69;10284019;28;20046;-66
2023/01/15 21:11:12;;;;;;;5.03;1.40;;;;;;;4.55;64.42;98693.28;10280990;28;20055;-66
2023/01/15 21:16:14;;;;;;;4.97;1.40;;;;;;;4.58;64.09;98675.81;10272707;28;20050;-66
2023/01/15 21:21:18;;;;;;;5.13;1.30;;;;;;;4.72;63.88;98666.44;10276363;28;20595;-65
2023/01/15 21:26:20;;;;;;;4.45;1.30;;;;;;;4.78;63.48;98658.34;10271462;28;20057;-66
2023/01/15 21:31:21;;;;;;;4.97;1.30;;;;;;;4.78;63.48;98642.78;10283507;28;20047;-66
2023/01/15 21:36:23;;;;;;;4.57;1.55;;;;;;;4.74;63.34;98636.13;10281212;28;20093;-65
2023/01/15 21:46:46;;;;;;;4.23;1.30;;;;;;;4.63;63.18;98609.06;10274548;28;20043;-65
2023/01/15 21:51:47;;;;;;;5.80;1.60;;;;;;;4.59;63.05;98605.00;10272872;28;20299;-65
2023/01/15 21:56:49;;;;;;;4.68;1.30;;;;;;;4.47;63.10;98591.91;10270383;28;20048;-65
2023/01/15 22:01:55;;;;;;;3.95;1.40;;;;;;;4.29;63.19;98585.97;10267845;28;20054;-66
2023/01/15 22:06:57;;;;;;;5.60;1.80;;;;;;;4.24;63.41;98576.81;10266193;28;20396;-65
2023/01/15 22:11:59;;;;;;;10.40;1.63;;;;;;;4.30;63.32;98574.72;10270117;28;20420;-66
2023/01/15 22:17:02;;;;;;;3.88;1.10;;;;;;;4.22;63.11;98571.72;10274054;28;20057;-66
2023/01/15 22:22:07;;;;;;;7.97;1.98;;;;;;;4.31;63.63;98560.03;10270233;28;20058;-65
2023/01/15 22:27:13;;;;;;;5.50;1.60;;;;;;;4.39;62.89;98553.47;10273988;28;20049;-65
2023/01/15 22:32:15;;;;;;;6.03;1.70;;;;;;;4.49;62.95;98538.28;10273581;28;20657;-65
2023/01/15 22:37:17;;;;;;;4.85;1.50;;;;;;;4.59;62.80;98535.09;10272717;28;20050;-65
2023/01/15 22:42:26;;;;;;;6.10;2.00;;;;;;;4.72;62.88;98529.19;10270885;28;20102;-66
2023/01/15 22:47:28;;;;;;;8.32;1.60;;;;;;;4.87;62.55;98523.94;10273110;28;20064;-65
2023/01/15 22:52:30;;;;;;;5.57;1.50;;;;;;;4.78;62.25;98502.94;10265895;28;20046;-65
2023/01/15 22:57:32;;;;;;;4.47;1.48;;;;;;;4.70;62.37;98501.63;10273311;28;20050;-66
2023/01/15 23:07:54;;;;;;;8.60;1.83;;;;;;;4.70;62.16;98467.97;10279502;28;20566;-65
2023/01/15 23:12:56;;;;;;;4.10;1.40;;;;;;;4.70;62.09;98462.78;10269391;28;20054;-65
2023/01/15 23:17:57;;;;;;;4.60;1.40;;;;;;;4.69;62.13;98445.59;10270523;28;20166;-65
2023/01/15 23:22:59;;;;;;;2.85;1.20;;;;;;;4.67;62.15;98439.66;10274176;28;20054;-65
2023/01/15 23:28:01;;;;;;;7.10;1.65;;;;;;;4.73;61.92;98435.88;10273924;28;20050;-65
2023/01/15 23:33:02;;;;;;;5.03;1.50;;;;;;;4.73;61.91;98422.91;10283624;28;20054;-65
2023/01/15 23:38:04;;;;;;;6.13;2.20;;;;;;;4.79;61.86;98417.38;10273044;28;20047;-65
2023/01/15 23:48:27;;;;;;;5.80;1.92;;;;;;;4.74;61.65;98401.25;10273326;28;20050;-65
2023/01/15 23:53:29;;;;;;;5.28;1.70;;;;;;;4.79;61.51;98386.28;10264258;28;20130;-65
2023/01/15 23:58:31;;;;;;;5.53;1.20;;;;;;;4.63;61.69;98378.63;10270786;28;20050;-65
